Terminal Aerodrome Forecast
Issued by NWS

Home | Current Version | Previous Version | Graphics & Text | Print | Product List | Glossary On
Versions: 1 2 3 4 5 6 7 8 9 10 11 12 13 14 15 16 17 18 19 20 21 22 23 24 25 26
285
FTUS43 KLOT 220851 AAA
TAFDPA
TAF AMD
KDPA 220851Z 2209/2306 24008KT P6SM FEW050
     FM221500 24015G23KT P6SM SCT100 BKN250
     FM222100 23014G22KT 6SM -SHRA BKN050 BKN100 PROB30 2222/2301
      5SM -TSRA OVC050CB
     FM230200 22010KT P6SM VCSH SCT025 BKN040=

USA.gov is the U.S. government's official web portal to all federal, state and local government web resources and services.